createdAt,value
2022-11-25T00:00:20.054Z,18.10
2022-11-25T00:02:47.888Z,16.50
2022-11-25T00:05:15.910Z,17.23
2022-11-25T00:07:43.704Z,16.37
2022-11-25T00:10:11.596Z,17.37
2022-11-25T00:12:40.764Z,17.00
2022-11-25T00:15:09.206Z,16.67
2022-11-25T00:17:36.995Z,17.87
2022-11-25T00:20:06.152Z,18.27
2022-11-25T00:22:33.859Z,17.93
2022-11-25T00:25:01.581Z,18.10
2022-11-25T00:27:29.304Z,18.50
2022-11-25T00:29:58.389Z,16.43
2022-11-25T00:32:26.162Z,17.30
2022-11-25T00:34:53.863Z,16.97
2022-11-25T00:37:21.630Z,16.37
2022-11-25T00:39:49.368Z,17.27
2022-11-25T00:42:34.574Z,16.63
2022-11-25T00:45:03.709Z,15.90
2022-11-25T00:47:31.446Z,17.00
2022-11-25T00:49:59.162Z,16.23
2022-11-25T00:52:28.020Z,15.90
2022-11-25T00:54:56.043Z,16.80
2022-11-25T00:57:24.648Z,16.80
2022-11-25T00:59:52.387Z,17.83
2022-11-25T01:02:21.559Z,17.87
2022-11-25T01:04:49.415Z,18.43
2022-11-25T01:07:17.583Z,18.20
2022-11-25T01:09:45.402Z,17.97
2022-11-25T01:12:13.157Z,18.60
2022-11-25T01:14:41.026Z,20.03
2022-11-25T01:17:08.775Z,18.00
2022-11-25T01:19:40.292Z,18.30
2022-11-25T01:22:08.414Z,19.40
2022-11-25T01:24:36.508Z,19.37
2022-11-25T01:27:04.489Z,19.50
2022-11-25T01:29:32.168Z,20.67
2022-11-25T01:31:59.936Z,19.97
2022-11-25T01:34:29.769Z,19.57
2022-11-25T01:36:58.998Z,18.83
2022-11-25T01:39:32.396Z,19.27
2022-11-25T01:42:00.799Z,19.43
2022-11-25T01:44:30.811Z,20.67
2022-11-25T01:47:04.424Z,19.73
2022-11-25T01:49:37.659Z,19.80
2022-11-25T01:52:14.720Z,19.57
2022-11-25T01:54:47.179Z,18.43
2022-11-25T01:57:18.762Z,20.03
2022-11-25T01:59:50.634Z,20.30
2022-11-25T02:02:20.238Z,19.43
2022-11-25T02:04:48.871Z,18.60
2022-11-25T02:07:25.291Z,19.27
2022-11-25T02:09:55.091Z,19.67
2022-11-25T02:12:23.679Z,20.10
2022-11-25T02:14:53.028Z,20.87
2022-11-25T02:17:21.492Z,20.13
2022-11-25T02:20:01.434Z,18.37
2022-11-25T02:22:41.986Z,17.50
2022-11-25T02:25:15.493Z,16.17
2022-11-25T02:27:45.830Z,17.90
2022-11-25T02:30:15.015Z,18.07
2022-11-25T02:32:46.081Z,16.70
2022-11-25T02:35:36.055Z,16.77
2022-11-25T02:38:09.384Z,19.07
2022-11-25T02:40:45.025Z,18.37
2022-11-25T02:43:13.427Z,17.17
2022-11-25T02:45:51.869Z,14.40
2022-11-25T02:48:19.766Z,16.00
2022-11-25T02:50:47.563Z,20.03
2022-11-25T02:53:15.380Z,15.57
2022-11-25T02:55:44.467Z,15.53
2022-11-25T02:58:12.197Z,17.87
2022-11-25T03:00:40.166Z,16.27
2022-11-25T03:03:08.240Z,16.00
2022-11-25T03:05:36.178Z,15.40
2022-11-25T03:08:04.023Z,18.07
2022-11-25T03:10:32.200Z,15.90
2022-11-25T03:13:01.649Z,15.20
2022-11-25T03:15:29.737Z,15.60
2022-11-25T03:17:58.106Z,16.13
2022-11-25T03:20:26.213Z,15.87
2022-11-25T03:22:53.928Z,16.73
2022-11-25T03:25:21.807Z,16.37
2022-11-25T03:27:49.839Z,16.20
2022-11-25T03:30:24.060Z,16.47
2022-11-25T03:32:51.947Z,14.03
2022-11-25T03:35:19.961Z,17.57
2022-11-25T03:37:47.905Z,14.77
2022-11-25T03:40:16.733Z,14.87
2022-11-25T03:42:44.919Z,14.17
2022-11-25T03:45:14.635Z,14.70
2022-11-25T03:47:45.394Z,12.70
2022-11-25T03:50:15.722Z,14.40
2022-11-25T03:52:43.483Z,11.70
2022-11-25T03:55:13.087Z,13.20
2022-11-25T03:57:41.028Z,13.03
2022-11-25T04:00:10.522Z,12.70
2022-11-25T04:02:38.304Z,12.00
2022-11-25T04:05:08.401Z,12.23
2022-11-25T04:07:36.207Z,10.13
2022-11-25T04:10:04.347Z,11.97
2022-11-25T04:12:49.186Z,11.23
2022-11-25T04:15:18.402Z,11.27
2022-11-25T04:17:46.439Z,11.73
2022-11-25T04:20:16.316Z,13.00
2022-11-25T04:22:44.274Z,10.53
2022-11-25T04:25:12.429Z,10.93
2022-11-25T04:27:40.200Z,9.77
2022-11-25T04:30:09.271Z,9.93
2022-11-25T04:32:37.851Z,10.90
2022-11-25T04:35:06.394Z,15.50
2022-11-25T04:37:35.479Z,11.53
2022-11-25T04:40:03.246Z,10.97
2022-11-25T04:42:34.639Z,11.53
2022-11-25T04:47:52.386Z,12.77
2022-11-25T04:50:22.632Z,11.50
2022-11-25T04:52:51.913Z,11.67
2022-11-25T04:55:19.632Z,11.07
2022-11-25T04:57:47.365Z,11.10
2022-11-25T05:00:14.833Z,10.97
2022-11-25T05:02:42.838Z,11.17
2022-11-25T05:05:10.678Z,10.37
2022-11-25T05:07:38.720Z,10.07
2022-11-25T05:10:11.336Z,11.57
2022-11-25T05:12:39.412Z,15.60
2022-11-25T05:15:08.056Z,16.43
2022-11-25T05:17:36.294Z,13.10
2022-11-25T05:20:04.843Z,10.70
2022-11-25T05:22:34.151Z,10.93
2022-11-25T05:25:01.994Z,11.23
2022-11-25T05:27:31.124Z,10.70
2022-11-25T05:29:58.872Z,10.80
2022-11-25T05:32:26.658Z,11.30
2022-11-25T05:34:54.527Z,10.87
2022-11-25T05:37:24.578Z,10.90
2022-11-25T05:39:53.029Z,11.40
2022-11-25T05:42:20.771Z,11.70
2022-11-25T05:44:49.826Z,10.13
2022-11-25T05:47:17.601Z,10.30
2022-11-25T05:49:45.348Z,12.10
2022-11-25T05:52:13.107Z,10.40
2022-11-25T05:54:40.924Z,10.77
2022-11-25T05:57:08.727Z,9.97
2022-11-25T05:59:36.552Z,9.07
2022-11-25T06:02:05.938Z,8.60
2022-11-25T06:04:34.098Z,7.43
2022-11-25T06:07:02.084Z,8.73
2022-11-25T06:09:29.785Z,8.87
2022-11-25T06:11:57.498Z,9.03
2022-11-25T06:14:25.222Z,8.77
2022-11-25T06:16:53.408Z,8.63
2022-11-25T06:19:22.456Z,9.07
2022-11-25T06:21:50.194Z,8.57
2022-11-25T06:24:18.733Z,8.73
2022-11-25T06:26:46.464Z,8.33
2022-11-25T06:29:14.173Z,9.53
2022-11-25T06:31:42.025Z,8.80
2022-11-25T06:34:09.839Z,8.50
2022-11-25T06:36:38.951Z,8.37
2022-11-25T06:39:06.822Z,8.20
2022-11-25T06:41:34.558Z,8.90
2022-11-25T06:44:02.296Z,6.90
2022-11-25T06:46:30.059Z,7.60
2022-11-25T06:49:00.548Z,7.73
2022-11-25T06:51:28.294Z,7.77
2022-11-25T06:53:57.447Z,8.17
2022-11-25T06:56:27.391Z,8.13
2022-11-25T06:58:56.135Z,8.50
2022-11-25T07:01:25.811Z,8.87
2022-11-25T07:03:55.510Z,7.90
2022-11-25T07:06:23.657Z,8.67
2022-11-25T07:08:51.955Z,7.93
2022-11-25T07:11:23.967Z,8.50
2022-11-25T07:13:53.773Z,9.10
2022-11-25T07:16:21.564Z,8.80
2022-11-25T07:18:49.660Z,9.50
2022-11-25T07:21:18.993Z,9.00
2022-11-25T07:23:47.909Z,9.20
2022-11-25T07:26:18.511Z,9.33
2022-11-25T07:28:47.563Z,9.47
2022-11-25T07:31:28.755Z,9.13
2022-11-25T07:34:01.029Z,9.10
2022-11-25T07:36:29.864Z,8.97
2022-11-25T07:38:58.752Z,10.40
2022-11-25T07:41:28.514Z,8.97
2022-11-25T07:43:58.959Z,10.17
2022-11-25T07:46:28.966Z,10.50
2022-11-25T07:48:58.914Z,10.10
2022-11-25T07:51:28.363Z,9.73
2022-11-25T07:53:58.136Z,8.53
2022-11-25T07:56:26.196Z,10.90
2022-11-25T07:58:54.669Z,10.00
2022-11-25T08:01:24.228Z,10.80
2022-11-25T08:03:53.353Z,9.90
2022-11-25T08:06:22.867Z,9.53
2022-11-25T08:08:52.821Z,10.33
2022-11-25T08:11:22.529Z,8.90
2022-11-25T08:13:50.922Z,9.50
2022-11-25T08:16:20.707Z,9.13
2022-11-25T08:18:50.282Z,9.20
2022-11-25T08:21:18.877Z,10.80
2022-11-25T08:23:48.703Z,8.37
2022-11-25T08:26:19.225Z,10.30
2022-11-25T08:28:48.139Z,9.67
2022-11-25T08:31:17.880Z,10.07
2022-11-25T08:33:46.124Z,8.73
2022-11-25T08:36:16.032Z,10.43
2022-11-25T08:38:44.811Z,10.47
2022-11-25T08:41:14.379Z,10.70
2022-11-25T08:43:42.338Z,10.90
2022-11-25T08:46:12.205Z,12.77
2022-11-25T08:48:40.152Z,10.47
2022-11-25T08:51:12.552Z,10.57
2022-11-25T08:53:42.811Z,10.37
2022-11-25T08:56:10.905Z,12.27
2022-11-25T08:58:38.887Z,12.50
2022-11-25T09:01:07.707Z,11.87
2022-11-25T09:03:36.635Z,11.80
2022-11-25T09:06:05.627Z,11.37
2022-11-25T09:08:33.444Z,11.40
2022-11-25T09:11:02.695Z,12.43
2022-11-25T09:13:30.523Z,12.80
2022-11-25T09:15:58.760Z,12.87
2022-11-25T09:18:26.443Z,13.13
2022-11-25T09:20:55.024Z,14.47
2022-11-25T09:23:23.296Z,14.27
2022-11-25T09:25:55.166Z,13.27
2022-11-25T09:28:25.378Z,13.40
2022-11-25T09:30:53.910Z,13.93
2022-11-25T09:33:22.609Z,13.77
2022-11-25T09:35:51.017Z,13.63
2022-11-25T09:38:18.782Z,12.27
2022-11-25T09:40:53.807Z,14.53
2022-11-25T09:43:54.355Z,15.10
2022-11-25T09:46:46.749Z,14.17
2022-11-25T09:49:31.936Z,16.07
2022-11-25T09:52:10.964Z,15.80
2022-11-25T09:54:41.250Z,14.87
2022-11-25T09:57:22.777Z,15.90
2022-11-25T10:00:02.516Z,14.27
2022-11-25T10:02:39.082Z,15.93
2022-11-25T10:05:13.753Z,12.03
2022-11-25T10:07:45.086Z,15.50
2022-11-25T10:10:20.843Z,15.13
2022-11-25T10:12:50.770Z,15.93
2022-11-25T10:15:27.351Z,14.77
2022-11-25T10:17:59.178Z,15.00
2022-11-25T10:20:32.734Z,14.87
2022-11-25T10:23:03.223Z,15.53
2022-11-25T10:25:34.255Z,16.10
2022-11-25T10:28:03.734Z,16.37
2022-11-25T10:30:38.614Z,18.47
2022-11-25T10:33:13.863Z,17.87
2022-11-25T10:35:48.216Z,15.87
2022-11-25T10:38:23.601Z,16.43
2022-11-25T10:40:53.455Z,15.43
2022-11-25T10:43:21.462Z,16.73
2022-11-25T10:45:59.773Z,18.00
2022-11-25T10:48:50.878Z,16.47
2022-11-25T10:51:33.595Z,16.10
2022-11-25T10:54:16.418Z,15.97
2022-11-25T10:56:46.943Z,15.20
2022-11-25T10:59:16.156Z,16.70
2022-11-25T11:01:47.286Z,16.87
2022-11-25T11:04:18.384Z,15.47
2022-11-25T11:06:47.736Z,16.40
2022-11-25T11:09:34.382Z,16.97
2022-11-25T11:12:15.609Z,15.67
2022-11-25T11:14:43.466Z,16.17
2022-11-25T11:17:36.416Z,16.83
2022-11-25T11:20:22.547Z,16.97
2022-11-25T11:22:58.373Z,17.83
2022-11-25T11:25:34.812Z,14.30
2022-11-25T11:28:03.496Z,16.60
2022-11-25T11:30:32.968Z,16.17
2022-11-25T11:33:05.601Z,17.37
2022-11-25T11:35:55.393Z,16.07
2022-11-25T11:38:33.700Z,18.07
2022-11-25T11:41:13.260Z,18.67
2022-11-25T11:43:56.488Z,17.63
2022-11-25T11:46:40.026Z,18.03
2022-11-25T11:49:30.857Z,17.93
2022-11-25T11:52:08.866Z,17.30
2022-11-25T11:54:41.318Z,19.20
2022-11-25T11:57:17.484Z,18.57
2022-11-25T11:59:49.051Z,18.80
2022-11-25T12:02:28.363Z,19.00
2022-11-25T12:05:05.841Z,18.50
2022-11-25T12:07:38.540Z,17.57
2022-11-25T12:10:16.579Z,17.93
2022-11-25T12:12:54.245Z,18.27
2022-11-25T12:15:29.911Z,18.50
2022-11-25T12:18:03.660Z,21.27
2022-11-25T12:20:42.286Z,19.40
2022-11-25T12:23:16.853Z,19.03
2022-11-25T12:25:46.275Z,17.97
2022-11-25T12:28:19.549Z,20.17
2022-11-25T12:31:04.898Z,16.57
2022-11-25T12:33:45.220Z,20.27
2022-11-25T12:36:19.078Z,19.53
2022-11-25T12:38:49.327Z,19.47
2022-11-25T12:41:28.971Z,21.00
2022-11-25T12:44:01.484Z,20.53
2022-11-25T12:46:36.471Z,19.37
2022-11-25T12:49:06.619Z,20.13
2022-11-25T12:52:02.647Z,20.37
2022-11-25T12:54:44.802Z,20.00
2022-11-25T12:57:49.017Z,18.03
2022-11-25T13:03:34.783Z,18.90
2022-11-25T13:06:23.782Z,19.37
2022-11-25T13:09:01.975Z,19.40
2022-11-25T13:11:47.867Z,18.53
2022-11-25T13:14:25.976Z,19.37
2022-11-25T13:16:56.147Z,19.13
2022-11-25T13:19:24.990Z,18.87
2022-11-25T13:22:07.564Z,17.77
2022-11-25T13:24:42.246Z,18.43
2022-11-25T13:27:31.259Z,18.20
2022-11-25T13:30:00.913Z,18.70
2022-11-25T13:32:41.263Z,18.43
2022-11-25T13:35:50.360Z,19.57
2022-11-25T13:38:39.071Z,18.37
2022-11-25T13:41:24.730Z,20.10
2022-11-25T13:44:01.710Z,20.20
2022-11-25T13:46:38.491Z,19.63
2022-11-25T13:49:08.222Z,17.37
2022-11-25T13:51:35.971Z,19.77
2022-11-25T13:54:07.308Z,17.30
2022-11-25T13:56:37.747Z,18.70
2022-11-25T13:59:38.983Z,17.73
2022-11-25T14:02:36.413Z,17.83
2022-11-25T14:05:15.448Z,19.03
2022-11-25T14:07:50.560Z,17.30
2022-11-25T14:10:45.682Z,16.63
2022-11-25T14:13:48.969Z,16.83
2022-11-25T14:16:41.440Z,17.50
2022-11-25T14:22:37.251Z,17.57
2022-11-25T14:25:17.222Z,16.93
2022-11-25T14:27:48.527Z,18.07
2022-11-25T14:30:18.168Z,19.13
2022-11-25T14:32:55.980Z,17.43
2022-11-25T14:35:28.358Z,19.03
2022-11-25T14:38:01.452Z,18.20
2022-11-25T14:40:35.865Z,18.53
2022-11-25T14:43:07.195Z,18.33
2022-11-25T14:45:36.689Z,18.73
2022-11-25T14:48:19.671Z,17.00
2022-11-25T14:50:58.031Z,16.93
2022-11-25T14:53:26.565Z,16.13
2022-11-25T14:55:54.989Z,17.23
2022-11-25T14:58:22.947Z,16.73
2022-11-25T15:00:52.665Z,16.93
2022-11-25T15:03:21.779Z,16.93
2022-11-25T15:05:57.142Z,17.33
2022-11-25T15:08:26.813Z,15.00
2022-11-25T15:11:00.167Z,15.83
2022-11-25T15:13:37.942Z,16.10
2022-11-25T15:16:09.814Z,16.30
2022-11-25T15:18:39.922Z,21.77
2022-11-25T15:21:07.840Z,15.00
2022-11-25T15:23:38.848Z,15.90
2022-11-25T15:26:18.965Z,16.23
2022-11-25T15:28:47.211Z,15.30
2022-11-25T15:31:20.742Z,14.37
2022-11-25T15:33:54.929Z,15.67
2022-11-25T15:36:23.886Z,16.80
2022-11-25T15:38:51.716Z,15.57
2022-11-25T15:41:25.586Z,15.43
2022-11-25T15:43:56.344Z,16.07
2022-11-25T15:46:25.667Z,16.17
2022-11-25T15:48:58.679Z,16.73
2022-11-25T15:51:34.188Z,16.03
2022-11-25T15:54:06.466Z,15.50
2022-11-25T15:56:38.900Z,15.17
2022-11-25T15:59:08.843Z,15.53
2022-11-25T16:01:41.481Z,13.67
2022-11-25T16:04:21.320Z,14.57
2022-11-25T16:06:56.550Z,15.20
2022-11-25T16:09:28.559Z,15.73
2022-11-25T16:12:06.593Z,15.20
2022-11-25T16:14:37.414Z,15.50
2022-11-25T16:17:10.530Z,14.07
2022-11-25T16:19:44.004Z,15.63
2022-11-25T16:22:16.083Z,15.27
2022-11-25T16:24:50.575Z,14.70
2022-11-25T16:27:22.185Z,15.83
2022-11-25T16:29:53.017Z,13.50
2022-11-25T16:32:22.841Z,16.67
2022-11-25T16:34:52.127Z,14.60
2022-11-25T16:37:19.871Z,15.80
2022-11-25T16:39:47.600Z,14.70
2022-11-25T16:42:20.498Z,14.20
2022-11-25T16:44:50.130Z,15.93
2022-11-25T16:47:18.808Z,14.90
2022-11-25T16:49:47.350Z,13.27
2022-11-25T16:52:16.554Z,15.80
2022-11-25T16:54:44.301Z,14.87
2022-11-25T16:57:17.832Z,15.90
2022-11-25T16:59:46.610Z,16.83
2022-11-25T17:02:19.200Z,13.43
2022-11-25T17:04:47.582Z,14.57
2022-11-25T17:07:34.691Z,14.30
2022-11-25T17:10:03.043Z,13.57
2022-11-25T17:12:34.215Z,14.33
2022-11-25T17:15:04.028Z,14.07
2022-11-25T17:17:32.181Z,14.57
2022-11-25T17:19:59.878Z,14.03
2022-11-25T17:22:33.356Z,14.43
2022-11-25T17:25:04.501Z,13.70
2022-11-25T17:27:33.990Z,15.33
2022-11-25T17:30:04.404Z,20.50
2022-11-25T17:32:33.044Z,22.37
2022-11-25T17:35:00.855Z,18.00
2022-11-25T17:37:31.107Z,16.07
2022-11-25T17:39:58.845Z,14.80
2022-11-25T17:42:30.181Z,15.33
2022-11-25T17:44:58.506Z,14.70
2022-11-25T17:47:26.248Z,14.10
2022-11-25T17:49:54.478Z,14.50
2022-11-25T17:52:22.295Z,13.97
2022-11-25T17:54:51.360Z,15.10
2022-11-25T17:57:23.293Z,12.83
2022-11-25T17:59:51.279Z,13.33
2022-11-25T18:02:20.821Z,13.50
2022-11-25T18:04:48.703Z,13.67
2022-11-25T18:07:16.627Z,14.07
2022-11-25T18:09:45.865Z,13.80
2022-11-25T18:12:19.707Z,13.13
2022-11-25T18:14:47.583Z,13.27
2022-11-25T18:17:19.077Z,13.60
2022-11-25T18:19:52.941Z,13.40
2022-11-25T18:22:23.925Z,12.70
2022-11-25T18:24:52.488Z,12.80
2022-11-25T18:27:24.756Z,12.67
2022-11-25T18:29:53.178Z,13.60
2022-11-25T18:32:21.166Z,13.33
2022-11-25T18:34:48.932Z,13.47
2022-11-25T18:37:16.833Z,13.83
2022-11-25T18:39:44.684Z,13.23
2022-11-25T18:42:23.988Z,12.97
2022-11-25T18:44:53.548Z,13.10
2022-11-25T18:47:21.274Z,13.27
2022-11-25T18:49:55.200Z,13.63
2022-11-25T18:52:23.929Z,13.00
2022-11-25T18:54:51.658Z,13.07
2022-11-25T18:57:19.534Z,13.47
2022-11-25T18:59:56.008Z,13.30
2022-11-25T19:02:36.954Z,14.10
2022-11-25T19:05:16.171Z,13.50
2022-11-25T19:07:43.957Z,14.43
2022-11-25T19:10:13.855Z,14.70
2022-11-25T19:12:44.201Z,14.13
2022-11-25T19:15:15.528Z,14.63
2022-11-25T19:17:46.939Z,13.27
2022-11-25T19:20:16.139Z,14.50
2022-11-25T19:22:43.912Z,13.40
2022-11-25T19:25:11.746Z,13.83
2022-11-25T19:27:43.466Z,14.37
2022-11-25T19:30:16.877Z,13.63
2022-11-25T19:32:47.980Z,14.23
2022-11-25T19:35:18.680Z,13.80
2022-11-25T19:37:49.118Z,14.97
2022-11-25T19:40:18.660Z,15.00
2022-11-25T19:42:48.369Z,15.00
2022-11-25T19:45:18.218Z,13.37
2022-11-25T19:50:39.599Z,14.47
2022-11-25T19:53:10.608Z,14.20
2022-11-25T19:55:38.374Z,14.70
2022-11-25T19:58:06.107Z,14.23
2022-11-25T20:00:35.431Z,13.43
2022-11-25T20:03:05.016Z,14.40
2022-11-25T20:05:35.223Z,12.73
2022-11-25T20:08:03.029Z,14.03
2022-11-25T20:10:32.915Z,14.47
2022-11-25T20:13:00.802Z,14.40
2022-11-25T20:15:28.716Z,13.90
2022-11-25T20:18:00.944Z,13.67
2022-11-25T20:20:35.341Z,14.33
2022-11-25T20:23:07.421Z,14.83
2022-11-25T20:25:37.423Z,13.60
2022-11-25T20:28:05.301Z,13.93
2022-11-25T20:30:33.076Z,14.17
2022-11-25T20:33:00.941Z,14.73
2022-11-25T20:35:35.861Z,12.73
2022-11-25T20:38:04.266Z,14.13
2022-11-25T20:40:39.264Z,14.00
2022-11-25T20:43:10.011Z,13.20
2022-11-25T20:45:37.904Z,13.13
2022-11-25T20:48:11.547Z,13.70
2022-11-25T20:50:40.680Z,13.53
2022-11-25T20:53:15.779Z,14.43
2022-11-25T20:55:44.135Z,13.90
2022-11-25T20:58:22.012Z,14.53
2022-11-25T21:00:54.144Z,12.83
2022-11-25T21:03:25.304Z,13.97
2022-11-25T21:05:58.013Z,14.43
2022-11-25T21:08:31.496Z,13.83
2022-11-25T21:11:00.407Z,13.70
2022-11-25T21:13:30.364Z,13.07
2022-11-25T21:15:59.524Z,14.03
2022-11-25T21:18:27.565Z,15.63
2022-11-25T21:20:58.295Z,16.23
2022-11-25T21:23:29.750Z,13.57
2022-11-25T21:26:05.029Z,14.00
2022-11-25T21:28:33.989Z,13.90
2022-11-25T21:31:03.873Z,12.57
2022-11-25T21:33:35.167Z,14.27
2022-11-25T21:36:04.624Z,15.73
2022-11-25T21:38:32.443Z,13.50
2022-11-25T21:41:00.381Z,13.97
2022-11-25T21:43:32.143Z,13.83
2022-11-25T21:46:02.405Z,13.87
2022-11-25T21:48:31.032Z,13.53
2022-11-25T21:50:58.989Z,13.93
2022-11-25T21:53:30.935Z,13.90
2022-11-25T21:56:02.410Z,13.90
2022-11-25T21:58:31.832Z,16.30
2022-11-25T22:01:01.867Z,14.97
2022-11-25T22:03:32.063Z,14.73
2022-11-25T22:05:59.817Z,14.63
2022-11-25T22:08:30.575Z,13.17
2022-11-25T22:10:58.326Z,14.43
2022-11-25T22:13:38.942Z,14.63
2022-11-25T22:16:07.469Z,13.90
2022-11-25T22:18:37.402Z,13.83
2022-11-25T22:21:05.315Z,14.07
2022-11-25T22:23:34.419Z,14.37
2022-11-25T22:26:02.218Z,13.83
2022-11-25T22:28:31.638Z,14.63
2022-11-25T22:31:03.737Z,14.83
2022-11-25T22:33:35.084Z,15.63
2022-11-25T22:36:03.310Z,14.40
2022-11-25T22:38:31.441Z,14.20
2022-11-25T22:41:02.871Z,14.17
2022-11-25T22:43:34.976Z,13.60
2022-11-25T22:46:04.287Z,13.83
2022-11-25T22:48:34.555Z,13.97
2022-11-25T22:51:02.625Z,13.13
2022-11-25T22:53:30.335Z,13.13
2022-11-25T22:55:58.604Z,14.63
2022-11-25T22:58:28.276Z,13.87
2022-11-25T23:00:57.803Z,14.07
2022-11-25T23:03:29.137Z,14.27
2022-11-25T23:05:57.786Z,14.80
2022-11-25T23:08:28.257Z,13.77
2022-11-25T23:10:57.189Z,13.50
2022-11-25T23:13:26.934Z,13.40
2022-11-25T23:15:56.829Z,14.33
2022-11-25T23:18:29.584Z,15.50
2022-11-25T23:20:59.600Z,13.67
2022-11-25T23:23:29.216Z,13.93
2022-11-25T23:25:57.742Z,14.17
2022-11-25T23:28:26.808Z,14.23
2022-11-25T23:30:56.005Z,13.30
2022-11-25T23:33:30.714Z,13.53
2022-11-25T23:36:02.526Z,13.37
2022-11-25T23:38:32.733Z,13.27
2022-11-25T23:41:00.458Z,15.13
2022-11-25T23:43:29.551Z,15.03
2022-11-25T23:45:57.626Z,13.90
2022-11-25T23:48:29.075Z,14.83
2022-11-25T23:50:58.818Z,12.97
2022-11-25T23:53:30.452Z,15.53
2022-11-25T23:55:58.205Z,14.50
2022-11-25T23:58:26.293Z,13.80
